Terminal Aerodrome Forecast
Issued by NWS Cleveland, OH

Home | Current Version | Previous Version | Graphics & Text | Print | Product List | Glossary On
Versions: 1 2 3 4 5 6 7 8 9 10 11 12 13 14 15 16 17 18 19 20 21 22 23 24 25 26 27 28
000
FTUS41 KCLE 160700 AAA
TAFCLE
TAF AMD
KCLE 160759Z 1608/1712 03006KT P6SM SCT045
     FM161500 12006KT P6SM SCT250
     FM162000 07011KT P6SM SCT250
     FM170800 15012KT P6SM BKN250=

USA.gov is the U.S. government's official web portal to all federal, state and local government web resources and services.